Station info - map view · info · telemetry · weather · raw · status · beacons · messages · bulletins · browse · moving · my account
Callsign, ship name or locator: Clear       
It is possible to search using wildcards (*?) after a prefix. Example: OH*
APRS station VA7CPL - show graphs
Map loading...
Comment: 147.570MHz ToffSilver Rubicon
Mic-E message: En route
Location: 49°02.74' N 122°14.35' W - locator CN89VB10HX - show map - static map
1.0 miles Southeast bearing 144° from Abbotsford, British Columbia, Canada [?]
7.0 miles Southeast bearing 151° from Mission, British Columbia, Canada
26.8 miles East bearing 99° from Surrey, British Columbia, Canada
42.2 miles East bearing 109° from Vancouver, British Columbia, Canada
Last position: 2020-07-06 15:38:33 EDT (22h50m ago)
2020-07-06 12:38:33 PDT local time at Abbotsford, Canada [?]
Altitude: 0 ft
Course:
Speed: 0 MPH
Device: Kenwood: TM-D710 (rig)
Last path: VA7CPL>TY0RWT via WIDE1-1,WIDE2-1,qAR,CHURCH (good)
Positions stored: 21471
Stations near current position of VA7CPL - show more
callsign distance last heard - EDT      callsign distance last heard - EDT
VE7/FV0271.7 miles 42°2020-06-12 10:21:48 VA7WLK1.8 miles 300°2020-07-02 12:51:07
VA7DGP-91.8 miles 267°2020-07-07 14:11:19 VE7WOL-92.1 miles 302°2020-07-05 14:16:36
VA7TSA-102.5 miles 290°2020-07-07 14:25:34 YE7GLZ2.6 miles 349°2020-06-14 21:39:09
CW88412.8 miles 247°2020-07-07 14:25:58 VA7GJK4.0 miles 279°2020-07-03 22:37:25
VA7GJK-94.1 miles 287°2020-07-07 14:08:05 DW94044.2 miles 221°2020-06-24 17:03:37
VA7VPN-95.2 miles 334°2020-07-04 22:48:20 VA7FBT5.4 miles 271°2020-06-18 22:13:01
VA7PKP B6.2 miles 253°2020-07-06 01:49:10 VA7PKP-B6.2 miles 253°2020-07-06 01:49:20
VA7BTA-96.7 miles 336°2020-07-06 23:43:10 W7W/WH2026.7 miles 181°2020-06-21 21:19:15
VE7LPA-97.1 miles 54°2020-06-28 17:39:16 VA7BTA7.1 miles 341°2020-06-30 13:30:01
YE7GLZ-97.1 miles 352°2020-06-14 12:53:31 VA7WPT7.2 miles 271°2020-07-05 13:47:49
Stations which heard VA7CPL directly on radio –
callsign pkts first heard - EDT last heard longest (tx => rx) longest at - EDT
VE7GDH 2 2020-07-04 11:32:11 2020-07-04 23:01:53 CN89JK > CN88GT 45.0 miles 193° 2020-07-04 11:32:11
VE7RNA-10 1 2020-07-04 23:26:50 2020-07-04 23:26:50 CN89OF > CN88BV 51.0 miles 244° 2020-07-04 23:26:50
SSI 2 2020-07-04 11:37:12 2020-07-04 22:44:31 CN89JN > CN88GT 51.9 miles 191° 2020-07-04 22:44:31
VE7OTD 65 2020-07-04 11:40:11 2020-07-04 22:58:39 CN89IJ > CN89KQ 21.7 miles 14° 2020-07-04 22:58:39
VE7ZIO-10 2 2020-07-04 01:46:47 2020-07-04 10:59:09 CN89OF > CN89RF 10.6 miles 82° 2020-07-04 10:59:09
CHURCH 6 2020-07-05 19:35:55 2020-07-06 15:38:33 CN89VB > CN88QU 22.0 miles 231° 2020-07-05 20:09:00
VA7GFZ 2 2020-07-04 01:56:33 2020-07-04 10:57:09 CN89QD > CN89OE 5.7 miles 301° 2020-07-04 01:56:33
VA7EOC 17 2020-07-04 11:05:00 2020-07-04 23:27:49 CN89OF > CN89LG 11.0 miles 294° 2020-07-04 23:27:49
VE7RCK-10 6 2020-07-04 11:11:59 2020-07-05 20:14:31 CN89JI > CN99BC 61.5 miles 105° 2020-07-04 11:21:53
VE7DYT 6 2020-07-04 11:25:54 2020-07-04 22:53:33 CN89JL > CN89AD 39.4 miles 237° 2020-07-04 22:51:31
VA7DXH 7 2020-07-04 11:27:07 2020-07-04 23:00:53 CN89IM > CN89CA 42.3 miles 218° 2020-07-04 22:47:31
VA7PF 2 2020-07-04 11:28:07 2020-07-04 22:56:31 CN89JK > CN89CA 38.6 miles 224° 2020-07-04 22:56:31
VE7NV 1 2020-07-04 10:58:10 2020-07-04 10:58:10 CN89OE > CN89KF 14.3 miles 277° 2020-07-04 10:58:10
VA7ITJ-10 2 2020-07-04 11:18:13 2020-07-04 11:19:39 CN89JI > CN89MC 19.1 miles 144° 2020-07-04 11:19:39
VE7TGZ-1 1 2020-07-05 20:12:31 2020-07-05 20:12:31 CN89VB > CN99AE 15.9 miles 55° 2020-07-05 20:12:31
WWU 3 2020-07-04 23:16:59 2020-07-04 23:37:39 CN89LG > CN88SR 43.7 miles 146° 2020-07-04 23:16:59

Only position packets which were originated by the station are shown here. The range statistics show some extra long hops, because some digipeaters do not correctly add themselves to the digipeater path. Please check the raw packets.
About this site
This page shows real-time information collected from the Automatic Position Reporting System Internet network (APRS-IS). APRS is used by amateur (ham) radio operators to transmit real-time position information, weather data, telemetry and messages over the radio. A vehicle equipped with a GPS receiver, a VHF transmitter or HF transceiver and a small computer device called a tracker transmits it's location, speed and course in a small data packet, which is then received by a nearby iGate receiving site which forwards the packet on the Internet. Systems connected to the Internet can send information on the APRS-IS without a radio transmitter, or collect and display information transmitted anywhere in the world.
User guide · FAQ · Blog · Discussion group · Linking to aprs.fi · AIS sites · Service status · Database statistics · Advertising on aprs.fi · Technical details · API · Change log · Planned changes · Credits and thanks · Terms Of Service · iPhone/iPad APRS